Time;durP1;ratioP1;P1;durP2;ratioP2;P2;SDS_P1;SDS_P2;PMS_P1;PMS_P2;Temp;Humidity;BMP_temperature;BMP_pressure;BME280_temperature;BME280_humidity;BME280_pressure;Samples;Min_cycle;Max_cycle;Signal;HPM_P1;HPM_P2
2024/02/24 00:01:34;;;;;;;26.92;15.85;;;;;;;9.01;71.88;99701.69;5099332;28;20498;-65
2024/02/24 00:03:59;;;;;;;24.40;14.55;;;;;;;9.05;72.38;99703.03;5094290;28;20043;-65
2024/02/24 00:06:25;;;;;;;31.85;16.52;;;;;;;9.08;70.71;99703.56;5098050;28;20097;-65
2024/02/24 00:08:50;;;;;;;24.88;15.45;;;;;;;9.00;72.14;99706.13;5098335;28;20028;-68
2024/02/24 00:11:16;;;;;;;28.52;15.00;;;;;;;9.08;71.92;99708.84;5098895;28;20376;-68
2024/02/24 00:13:41;;;;;;;25.27;15.20;;;;;;;8.99;72.22;99709.75;5100939;28;20032;-68
2024/02/24 00:16:07;;;;;;;33.85;16.73;;;;;;;8.99;72.54;99707.09;5099458;28;20045;-68
2024/02/24 00:18:33;;;;;;;26.63;14.90;;;;;;;8.91;73.31;99712.31;5100981;28;20298;-67
2024/02/24 00:20:58;;;;;;;32.50;15.48;;;;;;;9.00;72.72;99706.13;5098917;28;20055;-68
2024/02/24 00:23:24;;;;;;;58.17;24.05;;;;;;;9.19;71.73;99705.94;5100758;28;20426;-68
2024/02/24 00:25:50;;;;;;;30.73;15.80;;;;;;;9.23;70.70;99709.09;5100115;28;20036;-68
2024/02/24 00:28:15;;;;;;;25.40;14.70;;;;;;;8.95;72.16;99703.94;5100624;28;20032;-67
2024/02/24 00:30:41;;;;;;;30.70;15.90;;;;;;;9.18;71.16;99709.56;5099320;28;20039;-68
2024/02/24 00:33:06;;;;;;;26.05;14.15;;;;;;;9.20;71.35;99706.78;5099791;28;20248;-65
2024/02/24 00:35:32;;;;;;;34.28;17.98;;;;;;;9.26;70.02;99701.69;5099494;28;20096;-65
2024/02/24 00:37:58;;;;;;;26.95;15.23;;;;;;;9.24;69.89;99700.19;5098898;28;20100;-66
2024/02/24 00:40:24;;;;;;;26.27;16.20;;;;;;;9.21;69.42;99705.78;5099401;28;20067;-65
2024/02/24 00:42:49;;;;;;;31.08;16.00;;;;;;;9.17;69.55;99704.44;5098688;28;20040;-65
2024/02/24 00:45:15;;;;;;;26.27;14.82;;;;;;;9.19;70.38;99705.94;5099109;28;20035;-66
2024/02/24 00:47:40;;;;;;;33.22;17.05;;;;;;;8.89;71.89;99707.19;5099072;28;20216;-66
2024/02/24 00:50:06;;;;;;;30.08;16.48;;;;;;;8.95;72.01;99703.13;5099879;28;20043;-65
2024/02/24 00:52:32;;;;;;;34.33;18.13;;;;;;;8.94;66.53;99712.84;5098353;28;20111;-66
2024/02/24 00:54:59;;;;;;;31.90;18.35;;;;;;;8.88;65.10;99713.47;5100090;28;20214;-65
2024/02/24 00:57:25;;;;;;;33.22;20.02;;;;;;;8.87;63.71;99710.97;5094513;28;20056;-66
2024/02/24 00:59:51;;;;;;;33.20;16.98;;;;;;;8.84;64.74;99711.28;5100287;28;20334;-65
2024/02/24 01:02:16;;;;;;;37.55;19.98;;;;;;;8.63;67.10;99707.13;5098981;28;20036;-66
2024/02/24 01:04:42;;;;;;;37.42;19.40;;;;;;;8.57;69.65;99699.81;5100401;28;20034;-66
2024/02/24 01:07:10;;;;;;;33.70;17.73;;;;;;;8.56;71.86;99694.69;5099947;28;20039;-65
2024/02/24 01:09:36;;;;;;;33.97;18.15;;;;;;;8.23;66.99;99701.38;5098161;28;20349;-65
2024/02/24 01:12:02;;;;;;;32.78;18.48;;;;;;;7.80;69.80;99697.56;5099443;28;20099;-66
2024/02/24 01:14:28;;;;;;;31.58;17.25;;;;;;;7.87;68.42;99703.09;5098897;28;20032;-66
2024/02/24 01:16:53;;;;;;;30.80;16.55;;;;;;;7.91;70.87;99700.00;5099085;28;20040;-66
2024/02/24 01:19:19;;;;;;;30.50;16.63;;;;;;;7.78;73.64;99696.06;5100572;28;20137;-65
2024/02/24 01:21:44;;;;;;;26.02;14.95;;;;;;;7.96;73.52;99699.56;5098017;28;20032;-65
2024/02/24 01:24:10;;;;;;;27.02;15.07;;;;;;;8.11;73.85;99694.63;5095428;28;20330;-65
2024/02/24 01:26:36;;;;;;;28.80;15.13;;;;;;;8.13;73.63;99704.06;5100535;28;20100;-66
2024/02/24 01:29:01;;;;;;;23.77;13.43;;;;;;;8.14;74.20;99707.53;5099019;28;20039;-65
2024/02/24 01:31:26;;;;;;;24.35;12.98;;;;;;;8.10;74.68;99696.44;5099579;28;20036;-66
2024/02/24 01:33:52;;;;;;;21.80;13.13;;;;;;;8.21;74.99;99696.25;5097836;28;20028;-65
2024/02/24 01:36:17;;;;;;;18.88;11.77;;;;;;;8.37;73.75;99700.94;5098261;28;20052;-65
2024/02/24 01:38:43;;;;;;;20.50;11.45;;;;;;;8.41;72.87;99699.66;5098536;28;20042;-65
2024/02/24 01:41:09;;;;;;;40.60;19.10;;;;;;;8.43;73.16;99691.59;5098675;28;20059;-65
2024/02/24 01:43:37;;;;;;;24.17;15.38;;;;;;;8.38;70.15;99694.66;5090624;28;20041;-65
2024/02/24 01:46:03;;;;;;;19.88;12.80;;;;;;;8.43;68.77;99702.97;5098119;28;20225;-65
2024/02/24 01:48:32;;;;;;;19.77;11.27;;;;;;;8.20;72.55;99693.75;5095406;28;20043;-65
2024/02/24 01:50:59;;;;;;;29.25;13.65;;;;;;;8.23;73.52;99691.66;5098018;28;20111;-65
2024/02/24 01:53:27;;;;;;;19.75;10.82;;;;;;;8.29;72.32;99692.88;5094053;28;20358;-65
2024/02/24 01:55:53;;;;;;;20.13;11.38;;;;;;;8.17;73.75;99686.13;5093868;28;20039;-66
2024/02/24 01:58:20;;;;;;;23.70;12.93;;;;;;;8.20;73.47;99675.28;5096996;28;20028;-65
2024/02/24 02:00:46;;;;;;;18.88;12.30;;;;;;;8.27;73.30;99681.63;5095929;28;20036;-65
2024/02/24 02:03:11;;;;;;;21.88;14.05;;;;;;;8.10;74.94;99685.91;5099572;28;20366;-65
2024/02/24 02:05:37;;;;;;;28.27;12.93;;;;;;;8.24;75.06;99688.03;5097225;28;20032;-65
2024/02/24 02:08:03;;;;;;;20.83;11.18;;;;;;;8.10;71.72;99685.06;5099535;28;20097;-65
2024/02/24 02:10:51;;;;;;;20.83;11.15;;;;;;;7.50;71.26;99676.75;5098033;28;20051;-68
2024/02/24 02:13:17;;;;;;;20.77;11.35;;;;;;;7.63;71.30;99695.69;5098960;28;20028;-68
2024/02/24 02:15:43;;;;;;;17.77;11.07;;;;;;;7.54;74.60;99692.13;5097108;28;20055;-66
2024/02/24 02:18:10;;;;;;;43.40;17.23;;;;;;;7.65;75.71;99685.84;5098205;28;20091;-65
2024/02/24 02:20:35;;;;;;;24.20;12.10;;;;;;;7.55;77.28;99695.59;5097903;28;20047;-66
2024/02/24 02:23:01;;;;;;;20.02;11.23;;;;;;;7.69;76.41;99689.84;5098520;28;20042;-65
2024/02/24 02:25:27;;;;;;;19.38;11.10;;;;;;;7.68;75.96;99683.75;5095248;28;20051;-66
2024/02/24 02:27:52;;;;;;;21.20;12.05;;;;;;;7.82;75.08;99686.88;5098293;28;20081;-66
2024/02/24 02:30:18;;;;;;;21.70;11.20;;;;;;;7.87;75.70;99689.91;5097593;28;20071;-65
2024/02/24 02:32:44;;;;;;;21.98;11.82;;;;;;;7.97;75.42;99693.31;5097461;28;20050;-65
2024/02/24 02:35:10;;;;;;;19.17;11.30;;;;;;;8.04;74.42;99701.47;5096747;28;20047;-66
2024/02/24 02:37:35;;;;;;;21.10;11.98;;;;;;;8.06;74.56;99702.16;5097051;28;20372;-65
2024/02/24 02:40:02;;;;;;;18.17;10.93;;;;;;;8.10;74.69;99699.09;5096581;28;20036;-65
2024/02/24 02:42:28;;;;;;;19.10;10.80;;;;;;;8.11;74.31;99713.94;5089685;28;20373;-65
2024/02/24 02:44:54;;;;;;;21.15;11.93;;;;;;;8.03;74.03;99711.19;5097908;28;20220;-66
2024/02/24 02:47:19;;;;;;;19.15;10.70;;;;;;;8.10;74.32;99708.81;5096918;28;20074;-64
2024/02/24 02:49:45;;;;;;;17.55;10.55;;;;;;;8.06;74.89;99707.44;5098977;28;20042;-66
2024/02/24 02:52:10;;;;;;;19.27;11.52;;;;;;;8.08;74.05;99705.47;5097204;28;20048;-65
2024/02/24 02:54:35;;;;;;;18.88;10.00;;;;;;;7.94;74.85;99704.16;5098246;28;20040;-66
2024/02/24 02:57:01;;;;;;;17.42;10.23;;;;;;;7.97;73.48;99715.25;5096716;28;20331;-65
2024/02/24 02:59:27;;;;;;;54.75;21.08;;;;;;;7.96;74.12;99691.66;5097278;28;20051;-65
2024/02/24 03:01:54;;;;;;;24.65;12.32;;;;;;;7.84;73.93;99700.75;5093999;28;20059;-65
2024/02/24 03:04:20;;;;;;;21.65;12.45;;;;;;;7.95;73.10;99697.91;5097206;28;20024;-65
2024/02/24 03:06:45;;;;;;;21.88;12.27;;;;;;;7.99;73.60;99715.09;5097753;28;20044;-65
2024/02/24 03:09:11;;;;;;;19.23;10.77;;;;;;;7.99;71.22;99718.56;5096965;28;20036;-66
2024/02/24 03:11:37;;;;;;;19.23;11.20;;;;;;;7.96;68.55;99708.31;5093086;28;20118;-65
2024/02/24 03:14:03;;;;;;;27.83;15.15;;;;;;;7.78;70.41;99703.97;5096261;28;20027;-65
2024/02/24 03:16:29;;;;;;;22.00;12.23;;;;;;;7.58;74.20;99705.84;5096992;28;20051;-64
2024/02/24 03:18:54;;;;;;;20.63;11.80;;;;;;;7.84;73.72;99706.84;5096384;28;20039;-65
2024/02/24 03:21:33;;;;;;;18.65;11.15;;;;;;;7.88;73.81;99713.50;5097781;28;20048;-65
2024/02/24 03:24:00;;;;;;;21.42;11.35;;;;;;;7.95;72.75;99716.38;5100667;28;20043;-65
2024/02/24 03:26:25;;;;;;;19.67;11.18;;;;;;;7.95;73.45;99716.38;5101733;28;20040;-65
2024/02/24 03:28:51;;;;;;;25.38;12.55;;;;;;;7.96;73.99;99720.66;5098298;28;20028;-65
2024/02/24 03:31:17;;;;;;;22.83;12.00;;;;;;;7.64;74.97;99729.81;5101175;28;20089;-65
2024/02/24 03:33:42;;;;;;;17.52;10.80;;;;;;;7.79;74.80;99724.06;5093096;28;20069;-64
2024/02/24 03:36:18;;;;;;;17.52;10.90;;;;;;;7.87;72.36;99729.44;5100736;28;20437;-64
2024/02/24 03:38:44;;;;;;;19.92;12.30;;;;;;;7.66;74.09;99714.69;5100177;28;20040;-66
2024/02/24 03:41:10;;;;;;;23.17;13.40;;;;;;;7.65;74.42;99723.56;5100942;28;20139;-65
2024/02/24 03:43:36;;;;;;;21.20;12.23;;;;;;;7.58;75.16;99722.47;5101192;28;20036;-65
2024/02/24 03:46:06;;;;;;;22.88;12.40;;;;;;;7.67;72.46;99720.78;5101547;28;20119;-65
2024/02/24 03:48:32;;;;;;;27.45;14.00;;;;;;;7.78;73.06;99725.88;5101125;28;20043;-65
2024/02/24 03:50:59;;;;;;;19.45;12.52;;;;;;;7.85;71.29;99729.59;5101328;28;20050;-65
2024/02/24 03:53:26;;;;;;;22.35;13.75;;;;;;;7.87;71.14;99726.81;5100901;28;20316;-65
2024/02/24 03:55:52;;;;;;;22.95;12.10;;;;;;;7.76;69.10;99725.19;5100396;28;20071;-68
2024/02/24 03:58:18;;;;;;;24.73;13.73;;;;;;;7.62;71.75;99725.66;5100374;28;20032;-68
2024/02/24 04:00:44;;;;;;;19.45;12.63;;;;;;;7.55;72.88;99729.84;5099799;28;20040;-67
2024/02/24 04:03:10;;;;;;;20.20;12.75;;;;;;;7.45;73.83;99716.69;5101061;28;20272;-65
2024/02/24 04:05:35;;;;;;;20.73;12.88;;;;;;;7.48;71.08;99737.47;5099456;28;20210;-68
2024/02/24 04:08:01;;;;;;;22.60;13.48;;;;;;;7.44;72.35;99738.75;5101504;28;20074;-68
2024/02/24 04:10:26;;;;;;;23.55;14.27;;;;;;;7.18;75.78;99743.75;5091592;28;20298;-68
2024/02/24 04:12:52;;;;;;;21.23;12.88;;;;;;;7.25;75.55;99750.13;5100115;28;20230;-67
2024/02/24 04:15:21;;;;;;;19.60;11.57;;;;;;;7.31;73.05;99760.13;5099425;28;20039;-67
2024/02/24 04:17:48;;;;;;;22.67;11.68;;;;;;;7.37;73.31;99756.09;5099853;28;20074;-65
2024/02/24 04:20:14;;;;;;;23.15;12.75;;;;;;;7.43;74.25;99762.59;5099331;28;20487;-67
2024/02/24 04:22:40;;;;;;;22.58;13.30;;;;;;;7.46;74.92;99763.13;5099530;28;20289;-67
2024/02/24 04:25:06;;;;;;;17.02;11.23;;;;;;;7.53;75.46;99763.41;5095348;28;20043;-68
2024/02/24 04:27:31;;;;;;;20.15;12.18;;;;;;;7.36;75.86;99773.69;5100672;28;20313;-68
2024/02/24 04:29:57;;;;;;;19.52;12.70;;;;;;;7.27;77.61;99766.59;5100663;28;20245;-68
2024/02/24 04:32:23;;;;;;;19.58;11.40;;;;;;;7.35;77.42;99758.88;5099865;28;20067;-68
2024/02/24 04:34:48;;;;;;;16.58;11.18;;;;;;;7.47;76.94;99763.97;5099701;28;20056;-65
2024/02/24 04:37:14;;;;;;;22.33;11.98;;;;;;;7.36;77.06;99746.53;5099390;28;20318;-65
2024/02/24 04:39:39;;;;;;;20.13;11.98;;;;;;;7.58;76.95;99766.44;5100723;28;20040;-65
2024/02/24 04:42:06;;;;;;;19.20;11.05;;;;;;;7.61;76.42;99769.63;5099278;28;20040;-65
2024/02/24 04:44:31;;;;;;;22.90;13.15;;;;;;;7.63;76.18;99778.22;5100800;28;20043;-66
2024/02/24 04:46:57;;;;;;;25.15;13.70;;;;;;;7.62;76.28;99781.81;5091884;28;20054;-66
2024/02/24 04:49:22;;;;;;;22.55;12.55;;;;;;;7.65;76.09;99780.72;5100823;28;20032;-65
2024/02/24 04:51:47;;;;;;;20.63;11.90;;;;;;;7.51;76.24;99778.53;5099504;28;20043;-65
2024/02/24 04:54:13;;;;;;;20.35;12.77;;;;;;;7.48;77.15;99781.44;5100150;28;20048;-65
2024/02/24 04:56:39;;;;;;;24.15;14.05;;;;;;;7.60;77.12;99793.50;5099028;28;20040;-66
2024/02/24 04:59:04;;;;;;;18.75;11.55;;;;;;;7.64;76.69;99793.06;5100133;28;20039;-66
2024/02/24 05:01:30;;;;;;;21.45;13.18;;;;;;;7.76;76.67;99798.16;5090460;28;20048;-64
2024/02/24 05:03:55;;;;;;;27.60;13.23;;;;;;;7.84;75.14;99808.81;5099769;28;20265;-64
2024/02/24 05:06:21;;;;;;;24.90;13.60;;;;;;;7.71;75.58;99816.22;5100042;28;20090;-64
2024/02/24 05:08:46;;;;;;;19.77;11.60;;;;;;;7.57;76.91;99812.22;5099634;28;20038;-64
2024/02/24 05:11:12;;;;;;;21.85;13.57;;;;;;;7.63;76.82;99814.28;5099788;28;20044;-65
2024/02/24 05:13:37;;;;;;;22.73;13.57;;;;;;;7.59;77.04;99823.44;5098867;28;20256;-63
2024/02/24 05:16:06;;;;;;;20.27;11.90;;;;;;;7.68;76.20;99830.50;5099732;28;20056;-65
2024/02/24 05:18:32;;;;;;;22.95;13.90;;;;;;;7.53;77.42;99826.66;5099543;28;20047;-64
2024/02/24 05:20:59;;;;;;;20.83;13.50;;;;;;;7.49;77.26;99844.53;5100408;28;20313;-64
2024/02/24 05:23:25;;;;;;;20.90;11.15;;;;;;;7.48;77.06;99842.88;5099066;28;20043;-64
2024/02/24 05:25:51;;;;;;;22.75;12.85;;;;;;;7.33;78.69;99839.00;5098687;28;20036;-64
2024/02/24 05:28:16;;;;;;;21.52;13.50;;;;;;;7.34;79.34;99846.75;5099069;28;20221;-65
2024/02/24 05:30:42;;;;;;;20.70;12.77;;;;;;;7.51;78.56;99854.94;5098546;28;20050;-65
2024/02/24 05:33:08;;;;;;;22.42;11.27;;;;;;;7.50;78.43;99862.00;5097913;28;20036;-64
2024/02/24 05:35:33;;;;;;;26.90;14.32;;;;;;;7.47;78.77;99854.38;5096127;28;20382;-63
2024/02/24 05:37:59;;;;;;;26.25;15.00;;;;;;;7.52;78.39;99853.97;5098283;28;20076;-63
2024/02/24 05:40:24;;;;;;;25.80;14.60;;;;;;;7.55;79.05;99851.06;5099511;28;20056;-65
2024/02/24 05:42:50;;;;;;;23.00;14.35;;;;;;;7.56;78.66;99848.28;5089106;28;20040;-64
2024/02/24 05:45:16;;;;;;;21.75;13.38;;;;;;;7.70;78.17;99865.47;5098346;28;20047;-64
2024/02/24 05:47:41;;;;;;;23.55;12.73;;;;;;;7.72;77.64;99873.22;5097989;28;20106;-65
2024/02/24 05:50:07;;;;;;;23.58;13.05;;;;;;;7.82;77.57;99874.03;5099836;28;20044;-65
2024/02/24 05:52:33;;;;;;;25.67;14.00;;;;;;;7.94;77.38;99879.00;5097187;28;20036;-65
2024/02/24 05:54:58;;;;;;;20.42;11.55;;;;;;;7.97;77.22;99883.16;5099162;28;20036;-65
2024/02/24 05:57:24;;;;;;;23.02;13.38;;;;;;;8.00;76.97;99874.97;5099531;28;20047;-64
2024/02/24 05:59:49;;;;;;;21.40;13.18;;;;;;;8.07;77.07;99891.91;5098719;28;20298;-65
2024/02/24 06:02:15;;;;;;;25.60;13.85;;;;;;;7.90;78.31;99903.16;5098910;28;20035;-64
2024/02/24 06:04:40;;;;;;;18.45;12.52;;;;;;;7.95;78.15;99906.22;5099110;28;20035;-63
2024/02/24 06:07:06;;;;;;;25.48;16.05;;;;;;;8.14;78.28;99910.63;5099405;28;20040;-64
2024/02/24 06:09:31;;;;;;;34.63;22.20;;;;;;;8.12;78.17;99909.94;5099045;28;20035;-64
2024/02/24 06:11:57;;;;;;;34.85;21.63;;;;;;;8.20;78.13;99913.50;5098386;28;20044;-65
2024/02/24 06:14:22;;;;;;;28.85;16.52;;;;;;;8.28;77.74;99910.16;5097997;28;20023;-65
2024/02/24 06:16:48;;;;;;;25.00;15.93;;;;;;;8.39;78.14;99915.31;5098302;28;20340;-65
2024/02/24 06:19:13;;;;;;;26.75;14.25;;;;;;;8.48;77.94;99916.28;5096892;28;20028;-64
2024/02/24 06:21:39;;;;;;;26.63;14.40;;;;;;;8.70;78.25;99910.63;5092633;28;20379;-65
2024/02/24 06:24:04;;;;;;;25.48;13.43;;;;;;;8.87;77.99;99916.94;5084902;28;20048;-68
2024/02/24 06:26:30;;;;;;;21.45;13.38;;;;;;;9.08;77.86;99912.22;5097982;28;20048;-66
2024/02/24 06:28:56;;;;;;;23.30;13.50;;;;;;;9.40;76.00;99913.56;5096706;28;20038;-67
2024/02/24 06:31:21;;;;;;;21.33;13.07;;;;;;;9.60;75.34;99923.03;5098022;28;20054;-64
2024/02/24 06:33:47;;;;;;;19.75;12.38;;;;;;;9.84;74.96;99931.16;5097966;28;20117;-67
2024/02/24 06:36:12;;;;;;;19.70;12.25;;;;;;;10.05;74.33;99928.19;5098188;28;20062;-67
2024/02/24 06:38:38;;;;;;;23.13;13.13;;;;;;;10.18;73.63;99931.25;5098400;28;20032;-67
2024/02/24 06:41:03;;;;;;;25.95;14.55;;;;;;;10.31;73.32;99922.94;5098811;28;20044;-63
2024/02/24 06:43:29;;;;;;;21.80;15.85;;;;;;;10.43;73.08;99919.06;5098919;28;20031;-64
2024/02/24 06:45:55;;;;;;;25.08;14.02;;;;;;;10.58;72.56;99913.19;5098442;28;20328;-65
2024/02/24 06:48:21;;;;;;;24.80;12.82;;;;;;;10.69;72.59;99915.56;5098465;28;20368;-65
2024/02/24 06:50:46;;;;;;;21.02;13.10;;;;;;;10.96;71.54;99911.84;5098320;28;20047;-64
2024/02/24 06:53:12;;;;;;;27.17;14.60;;;;;;;11.06;71.59;99912.56;5097842;28;20346;-65
2024/02/24 06:55:38;;;;;;;30.60;17.35;;;;;;;11.31;70.77;99906.31;5098041;28;20371;-65
2024/02/24 06:58:03;;;;;;;23.42;13.45;;;;;;;11.51;70.38;99906.88;5098061;28;20085;-64
2024/02/24 07:00:29;;;;;;;22.50;13.25;;;;;;;11.83;70.20;99906.94;5098499;28;20120;-65
2024/02/24 07:02:54;;;;;;;22.27;13.35;;;;;;;12.06;68.99;99903.59;5097839;28;20077;-65
2024/02/24 07:05:20;;;;;;;21.20;13.05;;;;;;;12.24;69.04;99904.22;5097972;28;20032;-64
2024/02/24 07:07:45;;;;;;;20.85;11.93;;;;;;;12.25;69.71;99902.41;5098912;28;20226;-65
2024/02/24 07:10:11;;;;;;;30.85;14.82;;;;;;;12.33;69.20;99894.44;5098560;28;20036;-65
2024/02/24 07:12:36;;;;;;;20.50;12.75;;;;;;;12.42;69.46;99898.72;5097969;28;20260;-65
2024/02/24 07:15:02;;;;;;;22.40;12.13;;;;;;;12.58;68.95;99898.69;5098142;28;20081;-64
2024/02/24 07:17:28;;;;;;;24.73;12.80;;;;;;;12.72;69.07;99907.78;5098050;28;20099;-65
2024/02/24 07:19:54;;;;;;;19.88;11.68;;;;;;;12.81;69.14;99908.56;5097726;28;20047;-65
2024/02/24 07:22:20;;;;;;;19.90;12.35;;;;;;;13.06;69.00;99910.13;5098626;28;20044;-64
2024/02/24 07:24:46;;;;;;;18.63;12.90;;;;;;;13.18;68.57;99905.28;5097989;28;20364;-65
2024/02/24 07:27:11;;;;;;;20.38;12.88;;;;;;;13.30;67.98;99904.69;5096945;28;20035;-64
2024/02/24 07:29:37;;;;;;;21.00;13.60;;;;;;;13.39;68.67;99902.81;5097400;28;20036;-67
2024/02/24 07:32:02;;;;;;;21.13;13.13;;;;;;;13.55;68.19;99907.22;5097254;28;20043;-66
2024/02/24 07:34:28;;;;;;;19.58;12.20;;;;;;;13.71;68.39;99918.56;5097452;28;20027;-67
2024/02/24 07:36:53;;;;;;;22.25;13.43;;;;;;;13.65;68.29;99915.81;5098435;28;20051;-67
2024/02/24 07:39:20;;;;;;;19.55;11.55;;;;;;;13.79;69.00;99919.53;5097282;28;20035;-66
2024/02/24 07:41:45;;;;;;;16.75;11.50;;;;;;;13.86;68.95;99928.44;5097289;28;20043;-66
2024/02/24 07:44:11;;;;;;;21.85;12.00;;;;;;;13.92;69.07;99925.06;5097562;28;20094;-67
2024/02/24 07:46:37;;;;;;;19.77;12.02;;;;;;;14.00;69.19;99914.34;5097657;28;20288;-67
2024/02/24 07:49:03;;;;;;;17.85;11.57;;;;;;;14.09;68.22;99913.28;5097657;28;20040;-67
2024/02/24 07:51:29;;;;;;;20.38;12.57;;;;;;;14.00;68.60;99915.19;5097247;28;20329;-67
2024/02/24 07:53:55;;;;;;;20.40;12.48;;;;;;;14.04;69.25;99916.47;5097397;28;20326;-67
2024/02/24 07:56:22;;;;;;;19.35;12.35;;;;;;;14.05;70.02;99923.47;5097719;28;20052;-67
2024/02/24 07:58:48;;;;;;;19.35;12.60;;;;;;;14.08;70.05;99916.94;5097285;28;20093;-67
2024/02/24 08:01:14;;;;;;;22.30;12.55;;;;;;;14.22;70.02;99916.16;5098109;28;20126;-66
2024/02/24 08:03:39;;;;;;;19.80;12.93;;;;;;;14.27;70.33;99916.44;5097738;28;20032;-67
2024/02/24 08:06:05;;;;;;;19.05;12.85;;;;;;;14.27;70.25;99921.75;5097038;28;20044;-66
2024/02/24 08:08:33;;;;;;;18.40;11.88;;;;;;;14.03;70.74;99920.16;5099109;28;20055;-67
2024/02/24 08:11:00;;;;;;;19.80;12.43;;;;;;;13.93;71.38;99918.75;5101333;28;20083;-67
2024/02/24 08:13:26;;;;;;;19.95;12.35;;;;;;;14.22;70.67;99921.47;5101583;28;20031;-67
2024/02/24 08:15:51;;;;;;;21.05;12.95;;;;;;;13.96;72.11;99927.19;5100886;28;20281;-66
2024/02/24 08:18:17;;;;;;;17.30;11.90;;;;;;;14.22;72.19;99924.13;5101360;28;20252;-66
2024/02/24 08:20:42;;;;;;;19.85;13.07;;;;;;;14.32;72.02;99916.72;5100815;28;20063;-66
2024/02/24 08:23:08;;;;;;;17.85;11.85;;;;;;;14.50;70.45;99919.06;5100253;28;20042;-67
2024/02/24 08:25:34;;;;;;;18.65;12.68;;;;;;;14.67;69.84;99923.22;5100581;28;20051;-67
2024/02/24 08:28:00;;;;;;;19.80;11.60;;;;;;;14.69;71.28;99920.38;5100355;28;20337;-67
2024/02/24 08:30:25;;;;;;;19.98;11.52;;;;;;;14.36;72.07;99922.50;5101440;28;20047;-67
2024/02/24 08:32:51;;;;;;;19.55;12.15;;;;;;;14.61;71.60;99920.47;5100522;28;20241;-67
2024/02/24 08:35:17;;;;;;;19.10;12.07;;;;;;;14.56;71.14;99918.31;5100267;28;20024;-66
2024/02/24 08:37:44;;;;;;;15.13;9.90;;;;;;;14.29;74.03;99919.72;5099899;28;20039;-66
2024/02/24 08:40:13;;;;;;;16.25;9.73;;;;;;;14.28;74.12;99911.94;5100571;28;20035;-67
2024/02/24 08:42:39;;;;;;;16.42;10.68;;;;;;;14.15;74.64;99907.22;5100414;28;20046;-66
2024/02/24 08:45:05;;;;;;;16.02;10.02;;;;;;;13.82;75.17;99904.03;5100331;28;20040;-67
2024/02/24 08:47:31;;;;;;;17.02;10.80;;;;;;;13.66;77.67;99907.63;5100470;28;20727;-64
2024/02/24 08:49:56;;;;;;;16.13;9.88;;;;;;;13.80;77.44;99918.53;5100725;28;20144;-64
2024/02/24 08:52:22;;;;;;;19.10;11.75;;;;;;;13.84;77.19;99917.97;5100353;28;20032;-65
2024/02/24 08:54:48;;;;;;;18.48;10.23;;;;;;;13.93;76.48;99914.25;5100346;28;20044;-67
2024/02/24 08:57:13;;;;;;;18.38;10.50;;;;;;;13.81;76.88;99920.16;5100598;28;20050;-66
2024/02/24 08:59:39;;;;;;;17.85;10.85;;;;;;;13.77;76.45;99909.06;5101067;28;20093;-67
2024/02/24 09:02:05;;;;;;;15.95;10.50;;;;;;;13.97;76.48;99914.72;5100022;28;20371;-66
2024/02/24 09:04:30;;;;;;;19.17;10.82;;;;;;;13.91;76.14;99916.25;5100325;28;20028;-67
2024/02/24 09:06:55;;;;;;;15.82;10.10;;;;;;;13.98;76.31;99922.53;5099922;28;20048;-66
2024/02/24 09:09:21;;;;;;;18.20;10.57;;;;;;;14.07;75.97;99917.94;5100667;28;20028;-67
2024/02/24 09:11:47;;;;;;;15.93;10.02;;;;;;;14.30;75.68;99916.06;5100298;28;20224;-67
2024/02/24 09:14:13;;;;;;;16.20;9.50;;;;;;;14.46;76.41;99923.09;5100522;28;20230;-67
2024/02/24 09:16:39;;;;;;;13.75;9.73;;;;;;;14.46;75.10;99912.44;5099495;28;20107;-66
2024/02/24 09:19:04;;;;;;;64.38;14.45;;;;;;;14.55;76.65;99923.84;5098758;28;20028;-67
2024/02/24 09:21:30;;;;;;;13.10;8.65;;;;;;;14.63;76.14;99927.25;5099793;28;20058;-66
2024/02/24 09:23:56;;;;;;;14.60;9.13;;;;;;;14.69;74.25;99918.53;5100726;28;20099;-67
2024/02/24 09:26:22;;;;;;;15.48;9.90;;;;;;;14.68;74.37;99916.88;5100642;28;20055;-67
2024/02/24 09:28:47;;;;;;;15.38;9.20;;;;;;;14.78;74.79;99913.09;5100671;28;20052;-67
2024/02/24 09:31:13;;;;;;;15.70;10.13;;;;;;;14.85;74.01;99900.69;5099966;28;20234;-67
2024/02/24 09:33:38;;;;;;;16.50;9.18;;;;;;;14.62;74.36;99900.78;5099402;28;20035;-67
2024/02/24 09:36:04;;;;;;;13.88;9.00;;;;;;;14.62;74.88;99906.97;5098756;28;20344;-66
2024/02/24 09:38:29;;;;;;;11.93;8.00;;;;;;;14.65;75.81;99903.09;5099066;28;20047;-67
2024/02/24 09:40:55;;;;;;;20.45;8.73;;;;;;;14.72;75.65;99904.00;5098386;28;20047;-66
2024/02/24 09:43:20;;;;;;;13.35;8.57;;;;;;;14.92;75.02;99898.94;5098907;28;20420;-66
2024/02/24 09:45:47;;;;;;;11.85;7.22;;;;;;;14.84;73.87;99896.38;5098708;28;20170;-66
2024/02/24 09:48:14;;;;;;;13.00;7.88;;;;;;;15.03;75.11;99903.78;5099565;28;20055;-67
2024/02/24 09:50:40;;;;;;;10.70;6.53;;;;;;;15.07;75.66;99894.41;5099415;28;20430;-66
2024/02/24 09:53:06;;;;;;;9.15;6.07;;;;;;;15.08;74.18;99890.72;5099163;28;20028;-66
2024/02/24 09:55:32;;;;;;;10.57;6.45;;;;;;;15.12;72.63;99889.31;5099582;28;20032;-67
2024/02/24 09:57:59;;;;;;;10.43;5.85;;;;;;;15.24;71.69;99882.50;5099674;28;20039;-66
2024/02/24 10:00:25;;;;;;;10.23;6.30;;;;;;;15.39;71.83;99885.09;5098974;28;20062;-67
2024/02/24 10:02:50;;;;;;;11.20;7.10;;;;;;;15.47;72.98;99884.16;5099739;28;20306;-67
2024/02/24 10:05:16;;;;;;;9.65;6.72;;;;;;;15.45;70.65;99881.69;5099482;28;20024;-67
2024/02/24 10:07:43;;;;;;;9.95;7.50;;;;;;;15.50;71.45;99875.75;5099385;28;20215;-67
2024/02/24 10:10:13;;;;;;;11.63;7.68;;;;;;;15.57;70.97;99877.50;5098846;28;20036;-67
2024/02/24 10:12:39;;;;;;;10.82;7.50;;;;;;;15.60;70.83;99873.63;5097694;28;20115;-67
2024/02/24 10:15:05;;;;;;;13.15;7.40;;;;;;;15.74;69.95;99874.63;5098813;28;20028;-66
2024/02/24 10:17:31;;;;;;;10.68;6.00;;;;;;;15.76;68.58;99873.41;5097918;28;20068;-67
2024/02/24 10:19:57;;;;;;;10.15;5.90;;;;;;;15.83;66.65;99879.63;5098281;28;20044;-66
2024/02/24 10:22:22;;;;;;;10.38;6.43;;;;;;;15.78;67.31;99873.22;5098061;28;20111;-67
2024/02/24 10:24:48;;;;;;;10.38;6.38;;;;;;;15.88;67.15;99865.69;5097847;28;20047;-67
2024/02/24 10:27:16;;;;;;;13.20;7.38;;;;;;;15.87;69.18;99864.88;5098459;28;20036;-66
2024/02/24 10:29:42;;;;;;;11.20;6.55;;;;;;;15.93;67.81;99860.59;5098061;28;20032;-67
2024/02/24 10:32:08;;;;;;;9.48;6.43;;;;;;;15.99;65.76;99859.81;5097670;28;20078;-66
2024/02/24 10:34:34;;;;;;;8.93;5.50;;;;;;;16.03;63.00;99852.25;5097746;28;20032;-67
2024/02/24 10:37:02;;;;;;;8.90;6.20;;;;;;;16.10;64.22;99856.63;5097657;28;20048;-67
2024/02/24 10:39:33;;;;;;;9.68;5.20;;;;;;;16.19;63.57;99855.44;5098165;28;20056;-67
2024/02/24 10:41:59;;;;;;;9.40;6.13;;;;;;;16.25;63.67;99856.50;5089752;28;20106;-66
2024/02/24 10:44:26;;;;;;;5.85;4.93;;;;;;;16.28;63.18;99843.59;5096611;28;20249;-66
2024/02/24 10:46:51;;;;;;;10.70;6.40;;;;;;;16.38;63.01;99837.06;5097974;28;20035;-66
2024/02/24 10:49:17;;;;;;;9.38;5.32;;;;;;;16.45;62.48;99841.41;5097260;28;20325;-66
2024/02/24 10:51:46;;;;;;;5.97;4.15;;;;;;;16.59;59.94;99834.28;5097402;28;20277;-67
2024/02/24 10:54:19;;;;;;;5.32;3.58;;;;;;;16.63;55.40;99834.72;5097893;28;20229;-67
2024/02/24 10:56:46;;;;;;;5.30;3.60;;;;;;;16.75;56.10;99833.19;5098994;28;20031;-67
2024/02/24 10:59:11;;;;;;;7.05;4.22;;;;;;;16.79;55.00;99831.75;5091951;28;20253;-67
2024/02/24 11:01:46;;;;;;;5.68;3.72;;;;;;;16.81;53.91;99830.53;5098208;28;20044;-66
2024/02/24 11:04:12;;;;;;;5.03;3.50;;;;;;;16.87;54.09;99826.22;5096727;28;20031;-66
2024/02/24 11:06:52;;;;;;;6.88;3.97;;;;;;;16.92;53.35;99815.75;5098786;28;20097;-67
2024/02/24 11:09:29;;;;;;;4.13;3.20;;;;;;;17.01;53.03;99824.41;5096298;28;20032;-67
2024/02/24 11:12:19;;;;;;;4.10;2.75;;;;;;;17.01;51.44;99816.41;5097673;28;20182;-66
2024/02/24 11:14:47;;;;;;;3.83;2.40;;;;;;;17.07;50.02;99807.56;5092381;28;20054;-67
2024/02/24 11:17:46;;;;;;;3.38;2.50;;;;;;;17.17;50.50;99806.13;5097929;28;20040;-67
2024/02/24 11:20:31;;;;;;;3.63;2.65;;;;;;;17.22;52.54;99805.53;5089449;28;20040;-67